<?xml version="1.0" encoding="UTF-8" ?>
<gpx version="1.1" xmlns:xsi="http://www.w3.org/2001/XMLSchema-instance" 
    xmlns="http://www.topografix.com/GPX/1/1"
    xsi:schemaLocation="http://www.topografix.com/GPX/1/1 http://www.topografix.com/GPX/1/1/gpx.xsd" 
    creator="Openrunner - https://www.openrunner.com" >	<trk>
	                   <name>La vallée en Barret-23254501</name>
						<trkseg>
					<trkpt lat="45.710120" lon="4.744170">
						<ele>306</ele>
						<time>2026-01-27T08:58:43Z</time>
					</trkpt>
					<trkpt lat="45.710130" lon="4.743820">
						<ele>308</ele>
						<time>2026-01-27T08:59:16Z</time>
					</trkpt>
					<trkpt lat="45.710150" lon="4.743530">
						<ele>309</ele>
						<time>2026-01-27T08:59:43Z</time>
					</trkpt>
					<trkpt lat="45.710220" lon="4.743080">
						<ele>311</ele>
						<time>2026-01-27T09:00:26Z</time>
					</trkpt>
					<trkpt lat="45.710260" lon="4.742980">
						<ele>311</ele>
						<time>2026-01-27T09:00:36Z</time>
					</trkpt>
					<trkpt lat="45.710140" lon="4.742820">
						<ele>312</ele>
						<time>2026-01-27T09:00:58Z</time>
					</trkpt>
					<trkpt lat="45.710220" lon="4.742800">
						<ele>312</ele>
						<time>2026-01-27T09:01:09Z</time>
					</trkpt>
					<trkpt lat="45.710140" lon="4.742820">
						<ele>312</ele>
						<time>2026-01-27T09:01:20Z</time>
					</trkpt>
					<trkpt lat="45.709850" lon="4.742620">
						<ele>311</ele>
						<time>2026-01-27T09:02:03Z</time>
					</trkpt>
					<trkpt lat="45.709630" lon="4.742460">
						<ele>311</ele>
						<time>2026-01-27T09:02:36Z</time>
					</trkpt>
					<trkpt lat="45.709610" lon="4.742450">
						<ele>311</ele>
						<time>2026-01-27T09:02:39Z</time>
					</trkpt>
					<trkpt lat="45.709480" lon="4.742340">
						<ele>310</ele>
						<time>2026-01-27T09:02:59Z</time>
					</trkpt>
					<trkpt lat="45.708870" lon="4.741910">
						<ele>309</ele>
						<time>2026-01-27T09:04:30Z</time>
					</trkpt>
					<trkpt lat="45.708690" lon="4.741780">
						<ele>309</ele>
						<time>2026-01-27T09:04:57Z</time>
					</trkpt>
					<trkpt lat="45.708490" lon="4.741630">
						<ele>309</ele>
						<time>2026-01-27T09:05:27Z</time>
					</trkpt>
					<trkpt lat="45.708230" lon="4.741460">
						<ele>308</ele>
						<time>2026-01-27T09:06:05Z</time>
					</trkpt>
					<trkpt lat="45.708010" lon="4.741280">
						<ele>307</ele>
						<time>2026-01-27T09:06:39Z</time>
					</trkpt>
					<trkpt lat="45.707840" lon="4.741120">
						<ele>307</ele>
						<time>2026-01-27T09:07:06Z</time>
					</trkpt>
					<trkpt lat="45.707680" lon="4.740910">
						<ele>307</ele>
						<time>2026-01-27T09:07:35Z</time>
					</trkpt>
					<trkpt lat="45.707380" lon="4.740440">
						<ele>308</ele>
						<time>2026-01-27T09:08:34Z</time>
					</trkpt>
					<trkpt lat="45.707250" lon="4.740260">
						<ele>308</ele>
						<time>2026-01-27T09:08:58Z</time>
					</trkpt>
					<trkpt lat="45.706880" lon="4.739860">
						<ele>309</ele>
						<time>2026-01-27T09:10:00Z</time>
					</trkpt>
					<trkpt lat="45.706730" lon="4.739730">
						<ele>310</ele>
						<time>2026-01-27T09:10:23Z</time>
					</trkpt>
					<trkpt lat="45.706330" lon="4.739420">
						<ele>311</ele>
						<time>2026-01-27T09:11:24Z</time>
					</trkpt>
					<trkpt lat="45.705710" lon="4.738900">
						<ele>312</ele>
						<time>2026-01-27T09:13:00Z</time>
					</trkpt>
					<trkpt lat="45.705480" lon="4.738680">
						<ele>312</ele>
						<time>2026-01-27T09:13:37Z</time>
					</trkpt>
					<trkpt lat="45.705320" lon="4.738460">
						<ele>312</ele>
						<time>2026-01-27T09:14:07Z</time>
					</trkpt>
					<trkpt lat="45.705270" lon="4.738310">
						<ele>312</ele>
						<time>2026-01-27T09:14:22Z</time>
					</trkpt>
					<trkpt lat="45.705020" lon="4.737710">
						<ele>312</ele>
						<time>2026-01-27T09:15:27Z</time>
					</trkpt>
					<trkpt lat="45.704990" lon="4.737640">
						<ele>312</ele>
						<time>2026-01-27T09:15:35Z</time>
					</trkpt>
					<trkpt lat="45.704940" lon="4.737650">
						<ele>312</ele>
						<time>2026-01-27T09:15:42Z</time>
					</trkpt>
					<trkpt lat="45.704700" lon="4.737670">
						<ele>312</ele>
						<time>2026-01-27T09:16:14Z</time>
					</trkpt>
					<trkpt lat="45.703810" lon="4.736910">
						<ele>309</ele>
						<time>2026-01-27T09:18:32Z</time>
					</trkpt>
					<trkpt lat="45.703230" lon="4.735950">
						<ele>307</ele>
						<time>2026-01-27T09:20:30Z</time>
					</trkpt>
					<trkpt lat="45.702990" lon="4.735720">
						<ele>307</ele>
						<time>2026-01-27T09:21:09Z</time>
					</trkpt>
					<trkpt lat="45.702710" lon="4.735520">
						<ele>307</ele>
						<time>2026-01-27T09:21:51Z</time>
					</trkpt>
					<trkpt lat="45.702670" lon="4.735500">
						<ele>307</ele>
						<time>2026-01-27T09:21:56Z</time>
					</trkpt>
					<trkpt lat="45.701620" lon="4.734400">
						<ele>306</ele>
						<time>2026-01-27T09:24:50Z</time>
					</trkpt>
					<trkpt lat="45.701430" lon="4.734180">
						<ele>305</ele>
						<time>2026-01-27T09:25:22Z</time>
					</trkpt>
					<trkpt lat="45.701170" lon="4.733780">
						<ele>304</ele>
						<time>2026-01-27T09:26:13Z</time>
					</trkpt>
					<trkpt lat="45.700870" lon="4.733420">
						<ele>303</ele>
						<time>2026-01-27T09:27:06Z</time>
					</trkpt>
					<trkpt lat="45.700720" lon="4.733180">
						<ele>303</ele>
						<time>2026-01-27T09:27:36Z</time>
					</trkpt>
					<trkpt lat="45.700580" lon="4.732990">
						<ele>303</ele>
						<time>2026-01-27T09:28:01Z</time>
					</trkpt>
					<trkpt lat="45.700230" lon="4.732630">
						<ele>304</ele>
						<time>2026-01-27T09:28:59Z</time>
					</trkpt>
					<trkpt lat="45.699750" lon="4.732130">
						<ele>303</ele>
						<time>2026-01-27T09:30:18Z</time>
					</trkpt>
					<trkpt lat="45.699710" lon="4.732090">
						<ele>303</ele>
						<time>2026-01-27T09:30:25Z</time>
					</trkpt>
					<trkpt lat="45.699510" lon="4.731950">
						<ele>303</ele>
						<time>2026-01-27T09:30:54Z</time>
					</trkpt>
					<trkpt lat="45.699390" lon="4.731910">
						<ele>303</ele>
						<time>2026-01-27T09:31:11Z</time>
					</trkpt>
					<trkpt lat="45.699040" lon="4.731740">
						<ele>302</ele>
						<time>2026-01-27T09:32:00Z</time>
					</trkpt>
					<trkpt lat="45.698750" lon="4.731640">
						<ele>301</ele>
						<time>2026-01-27T09:32:40Z</time>
					</trkpt>
					<trkpt lat="45.698570" lon="4.731560">
						<ele>300</ele>
						<time>2026-01-27T09:33:05Z</time>
					</trkpt>
					<trkpt lat="45.698530" lon="4.731530">
						<ele>300</ele>
						<time>2026-01-27T09:33:11Z</time>
					</trkpt>
					<trkpt lat="45.698270" lon="4.731340">
						<ele>300</ele>
						<time>2026-01-27T09:33:50Z</time>
					</trkpt>
					<trkpt lat="45.698020" lon="4.731190">
						<ele>299</ele>
						<time>2026-01-27T09:34:26Z</time>
					</trkpt>
					<trkpt lat="45.697910" lon="4.731150">
						<ele>298</ele>
						<time>2026-01-27T09:34:41Z</time>
					</trkpt>
					<trkpt lat="45.697580" lon="4.731120">
						<ele>296</ele>
						<time>2026-01-27T09:35:25Z</time>
					</trkpt>
					<trkpt lat="45.697360" lon="4.731080">
						<ele>295</ele>
						<time>2026-01-27T09:35:55Z</time>
					</trkpt>
					<trkpt lat="45.697020" lon="4.730970">
						<ele>294</ele>
						<time>2026-01-27T09:36:41Z</time>
					</trkpt>
					<trkpt lat="45.696700" lon="4.730840">
						<ele>293</ele>
						<time>2026-01-27T09:37:26Z</time>
					</trkpt>
					<trkpt lat="45.696220" lon="4.730600">
						<ele>293</ele>
						<time>2026-01-27T09:38:34Z</time>
					</trkpt>
					<trkpt lat="45.695690" lon="4.730230">
						<ele>292</ele>
						<time>2026-01-27T09:39:52Z</time>
					</trkpt>
					<trkpt lat="45.694940" lon="4.729750">
						<ele>290</ele>
						<time>2026-01-27T09:41:42Z</time>
					</trkpt>
					<trkpt lat="45.694610" lon="4.729510">
						<ele>286</ele>
						<time>2026-01-27T09:42:31Z</time>
					</trkpt>
					<trkpt lat="45.694490" lon="4.729450">
						<ele>285</ele>
						<time>2026-01-27T09:42:48Z</time>
					</trkpt>
					<trkpt lat="45.694630" lon="4.729360">
						<ele>286</ele>
						<time>2026-01-27T09:43:09Z</time>
					</trkpt>
					<trkpt lat="45.694490" lon="4.729450">
						<ele>285</ele>
						<time>2026-01-27T09:43:29Z</time>
					</trkpt>
					<trkpt lat="45.694080" lon="4.729360">
						<ele>280</ele>
						<time>2026-01-27T09:44:25Z</time>
					</trkpt>
					<trkpt lat="45.693410" lon="4.729190">
						<ele>275</ele>
						<time>2026-01-27T09:45:56Z</time>
					</trkpt>
					<trkpt lat="45.693230" lon="4.729110">
						<ele>272</ele>
						<time>2026-01-27T09:46:21Z</time>
					</trkpt>
					<trkpt lat="45.693120" lon="4.729090">
						<ele>270</ele>
						<time>2026-01-27T09:46:35Z</time>
					</trkpt>
					<trkpt lat="45.693010" lon="4.729100">
						<ele>269</ele>
						<time>2026-01-27T09:46:50Z</time>
					</trkpt>
					<trkpt lat="45.692870" lon="4.729150">
						<ele>267</ele>
						<time>2026-01-27T09:47:09Z</time>
					</trkpt>
					<trkpt lat="45.692840" lon="4.729140">
						<ele>267</ele>
						<time>2026-01-27T09:47:14Z</time>
					</trkpt>
					<trkpt lat="45.692820" lon="4.729120">
						<ele>266</ele>
						<time>2026-01-27T09:47:17Z</time>
					</trkpt>
					<trkpt lat="45.692800" lon="4.729060">
						<ele>265</ele>
						<time>2026-01-27T09:47:23Z</time>
					</trkpt>
					<trkpt lat="45.692810" lon="4.729000">
						<ele>264</ele>
						<time>2026-01-27T09:47:29Z</time>
					</trkpt>
					<trkpt lat="45.692880" lon="4.728880">
						<ele>263</ele>
						<time>2026-01-27T09:47:43Z</time>
					</trkpt>
					<trkpt lat="45.692990" lon="4.728810">
						<ele>263</ele>
						<time>2026-01-27T09:47:59Z</time>
					</trkpt>
					<trkpt lat="45.693000" lon="4.728770">
						<ele>263</ele>
						<time>2026-01-27T09:48:03Z</time>
					</trkpt>
					<trkpt lat="45.693010" lon="4.728710">
						<ele>262</ele>
						<time>2026-01-27T09:48:09Z</time>
					</trkpt>
					<trkpt lat="45.692990" lon="4.728650">
						<ele>260</ele>
						<time>2026-01-27T09:48:15Z</time>
					</trkpt>
					<trkpt lat="45.692950" lon="4.728620">
						<ele>259</ele>
						<time>2026-01-27T09:48:21Z</time>
					</trkpt>
					<trkpt lat="45.692910" lon="4.728620">
						<ele>259</ele>
						<time>2026-01-27T09:48:27Z</time>
					</trkpt>
					<trkpt lat="45.692840" lon="4.728710">
						<ele>259</ele>
						<time>2026-01-27T09:48:39Z</time>
					</trkpt>
					<trkpt lat="45.692690" lon="4.729030">
						<ele>263</ele>
						<time>2026-01-27T09:49:15Z</time>
					</trkpt>
					<trkpt lat="45.692250" lon="4.729590">
						<ele>256</ele>
						<time>2026-01-27T09:50:34Z</time>
					</trkpt>
					<trkpt lat="45.692190" lon="4.729610">
						<ele>254</ele>
						<time>2026-01-27T09:50:42Z</time>
					</trkpt>
					<trkpt lat="45.692160" lon="4.729600">
						<ele>253</ele>
						<time>2026-01-27T09:50:46Z</time>
					</trkpt>
					<trkpt lat="45.692140" lon="4.729580">
						<ele>253</ele>
						<time>2026-01-27T09:50:49Z</time>
					</trkpt>
					<trkpt lat="45.692130" lon="4.729520">
						<ele>253</ele>
						<time>2026-01-27T09:50:55Z</time>
					</trkpt>
					<trkpt lat="45.692150" lon="4.729450">
						<ele>253</ele>
						<time>2026-01-27T09:51:02Z</time>
					</trkpt>
					<trkpt lat="45.692320" lon="4.729230">
						<ele>257</ele>
						<time>2026-01-27T09:51:33Z</time>
					</trkpt>
					<trkpt lat="45.692620" lon="4.728490">
						<ele>252</ele>
						<time>2026-01-27T09:52:52Z</time>
					</trkpt>
					<trkpt lat="45.692670" lon="4.728420">
						<ele>251</ele>
						<time>2026-01-27T09:53:02Z</time>
					</trkpt>
					<trkpt lat="45.692730" lon="4.728370">
						<ele>251</ele>
						<time>2026-01-27T09:53:11Z</time>
					</trkpt>
					<trkpt lat="45.692780" lon="4.728310">
						<ele>251</ele>
						<time>2026-01-27T09:53:20Z</time>
					</trkpt>
					<trkpt lat="45.692790" lon="4.728240">
						<ele>250</ele>
						<time>2026-01-27T09:53:26Z</time>
					</trkpt>
					<trkpt lat="45.692780" lon="4.728200">
						<ele>249</ele>
						<time>2026-01-27T09:53:30Z</time>
					</trkpt>
					<trkpt lat="45.692740" lon="4.728150">
						<ele>248</ele>
						<time>2026-01-27T09:53:37Z</time>
					</trkpt>
					<trkpt lat="45.692680" lon="4.728140">
						<ele>247</ele>
						<time>2026-01-27T09:53:45Z</time>
					</trkpt>
					<trkpt lat="45.692640" lon="4.728180">
						<ele>247</ele>
						<time>2026-01-27T09:53:52Z</time>
					</trkpt>
					<trkpt lat="45.692620" lon="4.728220">
						<ele>247</ele>
						<time>2026-01-27T09:53:57Z</time>
					</trkpt>
					<trkpt lat="45.692510" lon="4.728490">
						<ele>250</ele>
						<time>2026-01-27T09:54:26Z</time>
					</trkpt>
					<trkpt lat="45.692150" lon="4.729050">
						<ele>251</ele>
						<time>2026-01-27T09:55:37Z</time>
					</trkpt>
					<trkpt lat="45.691810" lon="4.729280">
						<ele>243</ele>
						<time>2026-01-27T09:56:27Z</time>
					</trkpt>
					<trkpt lat="45.691740" lon="4.729390">
						<ele>242</ele>
						<time>2026-01-27T09:56:41Z</time>
					</trkpt>
					<trkpt lat="45.691600" lon="4.730010">
						<ele>242</ele>
						<time>2026-01-27T09:57:41Z</time>
					</trkpt>
					<trkpt lat="45.691410" lon="4.730620">
						<ele>236</ele>
						<time>2026-01-27T09:58:44Z</time>
					</trkpt>
					<trkpt lat="45.691440" lon="4.730870">
						<ele>236</ele>
						<time>2026-01-27T09:59:07Z</time>
					</trkpt>
					<trkpt lat="45.691800" lon="4.731350">
						<ele>236</ele>
						<time>2026-01-27T10:00:13Z</time>
					</trkpt>
					<trkpt lat="45.691940" lon="4.731560">
						<ele>238</ele>
						<time>2026-01-27T10:00:40Z</time>
					</trkpt>
					<trkpt lat="45.692260" lon="4.732410">
						<ele>236</ele>
						<time>2026-01-27T10:02:10Z</time>
					</trkpt>
					<trkpt lat="45.692270" lon="4.732800">
						<ele>233</ele>
						<time>2026-01-27T10:02:46Z</time>
					</trkpt>
					<trkpt lat="45.692240" lon="4.732920">
						<ele>232</ele>
						<time>2026-01-27T10:02:58Z</time>
					</trkpt>
					<trkpt lat="45.692100" lon="4.733240">
						<ele>228</ele>
						<time>2026-01-27T10:03:34Z</time>
					</trkpt>
					<trkpt lat="45.692070" lon="4.733320">
						<ele>227</ele>
						<time>2026-01-27T10:03:42Z</time>
					</trkpt>
					<trkpt lat="45.692040" lon="4.733430">
						<ele>227</ele>
						<time>2026-01-27T10:03:53Z</time>
					</trkpt>
					<trkpt lat="45.691970" lon="4.733730">
						<ele>227</ele>
						<time>2026-01-27T10:04:22Z</time>
					</trkpt>
					<trkpt lat="45.691720" lon="4.734570">
						<ele>228</ele>
						<time>2026-01-27T10:05:48Z</time>
					</trkpt>
					<trkpt lat="45.691410" lon="4.735010">
						<ele>229</ele>
						<time>2026-01-27T10:06:46Z</time>
					</trkpt>
					<trkpt lat="45.691300" lon="4.735230">
						<ele>230</ele>
						<time>2026-01-27T10:07:11Z</time>
					</trkpt>
					<trkpt lat="45.691130" lon="4.735540">
						<ele>230</ele>
						<time>2026-01-27T10:07:48Z</time>
					</trkpt>
					<trkpt lat="45.691070" lon="4.735660">
						<ele>230</ele>
						<time>2026-01-27T10:08:02Z</time>
					</trkpt>
					<trkpt lat="45.691030" lon="4.735850">
						<ele>230</ele>
						<time>2026-01-27T10:08:20Z</time>
					</trkpt>
					<trkpt lat="45.691020" lon="4.736130">
						<ele>232</ele>
						<time>2026-01-27T10:08:46Z</time>
					</trkpt>
					<trkpt lat="45.690980" lon="4.736370">
						<ele>234</ele>
						<time>2026-01-27T10:09:09Z</time>
					</trkpt>
					<trkpt lat="45.690820" lon="4.736650">
						<ele>233</ele>
						<time>2026-01-27T10:09:43Z</time>
					</trkpt>
					<trkpt lat="45.690570" lon="4.737180">
						<ele>234</ele>
						<time>2026-01-27T10:10:43Z</time>
					</trkpt>
					<trkpt lat="45.690550" lon="4.737310">
						<ele>234</ele>
						<time>2026-01-27T10:10:55Z</time>
					</trkpt>
					<trkpt lat="45.690580" lon="4.738280">
						<ele>236</ele>
						<time>2026-01-27T10:12:25Z</time>
					</trkpt>
					<trkpt lat="45.690570" lon="4.738380">
						<ele>236</ele>
						<time>2026-01-27T10:12:35Z</time>
					</trkpt>
					<trkpt lat="45.690350" lon="4.739340">
						<ele>237</ele>
						<time>2026-01-27T10:14:09Z</time>
					</trkpt>
					<trkpt lat="45.690330" lon="4.739210">
						<ele>235</ele>
						<time>2026-01-27T10:14:21Z</time>
					</trkpt>
					<trkpt lat="45.690360" lon="4.739080">
						<ele>235</ele>
						<time>2026-01-27T10:14:34Z</time>
					</trkpt>
					<trkpt lat="45.690400" lon="4.738800">
						<ele>234</ele>
						<time>2026-01-27T10:15:01Z</time>
					</trkpt>
					<trkpt lat="45.690350" lon="4.738600">
						<ele>232</ele>
						<time>2026-01-27T10:15:21Z</time>
					</trkpt>
					<trkpt lat="45.690050" lon="4.738300">
						<ele>223</ele>
						<time>2026-01-27T10:16:09Z</time>
					</trkpt>
					<trkpt lat="45.689720" lon="4.737800">
						<ele>226</ele>
						<time>2026-01-27T10:17:14Z</time>
					</trkpt>
					<trkpt lat="45.689610" lon="4.737680">
						<ele>228</ele>
						<time>2026-01-27T10:17:32Z</time>
					</trkpt>
					<trkpt lat="45.689590" lon="4.737790">
						<ele>228</ele>
						<time>2026-01-27T10:17:43Z</time>
					</trkpt>
					<trkpt lat="45.689590" lon="4.737790">
						<ele>228</ele>
						<time>2026-01-27T10:17:43Z</time>
					</trkpt>
					<trkpt lat="45.689590" lon="4.737840">
						<ele>228</ele>
						<time>2026-01-27T10:17:47Z</time>
					</trkpt>
					<trkpt lat="45.689570" lon="4.738050">
						<ele>227</ele>
						<time>2026-01-27T10:18:07Z</time>
					</trkpt>
					<trkpt lat="45.689350" lon="4.738670">
						<ele>226</ele>
						<time>2026-01-27T10:19:12Z</time>
					</trkpt>
					<trkpt lat="45.689020" lon="4.738890">
						<ele>231</ele>
						<time>2026-01-27T10:20:00Z</time>
					</trkpt>
					<trkpt lat="45.688570" lon="4.739480">
						<ele>239</ele>
						<time>2026-01-27T10:21:22Z</time>
					</trkpt>
					<trkpt lat="45.688210" lon="4.740160">
						<ele>237</ele>
						<time>2026-01-27T10:22:41Z</time>
					</trkpt>
					<trkpt lat="45.687950" lon="4.740610">
						<ele>240</ele>
						<time>2026-01-27T10:23:36Z</time>
					</trkpt>
					<trkpt lat="45.687220" lon="4.742910">
						<ele>228</ele>
						<time>2026-01-27T10:27:31Z</time>
					</trkpt>
					<trkpt lat="45.687000" lon="4.743250">
						<ele>226</ele>
						<time>2026-01-27T10:28:15Z</time>
					</trkpt>
					<trkpt lat="45.687000" lon="4.743250">
						<ele>226</ele>
						<time>2026-01-27T10:28:15Z</time>
					</trkpt>
					<trkpt lat="45.686920" lon="4.743320">
						<ele>226</ele>
						<time>2026-01-27T10:28:27Z</time>
					</trkpt>
					<trkpt lat="45.686670" lon="4.743270">
						<ele>231</ele>
						<time>2026-01-27T10:29:01Z</time>
					</trkpt>
					<trkpt lat="45.684930" lon="4.745080">
						<ele>223</ele>
						<time>2026-01-27T10:33:48Z</time>
					</trkpt>
					<trkpt lat="45.684680" lon="4.745220">
						<ele>222</ele>
						<time>2026-01-27T10:34:24Z</time>
					</trkpt>
					<trkpt lat="45.684490" lon="4.745260">
						<ele>222</ele>
						<time>2026-01-27T10:34:49Z</time>
					</trkpt>
					<trkpt lat="45.684280" lon="4.745410">
						<ele>221</ele>
						<time>2026-01-27T10:35:21Z</time>
					</trkpt>
					<trkpt lat="45.684200" lon="4.745460">
						<ele>221</ele>
						<time>2026-01-27T10:35:32Z</time>
					</trkpt>
					<trkpt lat="45.684730" lon="4.747170">
						<ele>214</ele>
						<time>2026-01-27T10:38:27Z</time>
					</trkpt>
					<trkpt lat="45.684770" lon="4.747460">
						<ele>214</ele>
						<time>2026-01-27T10:38:54Z</time>
					</trkpt>
					<trkpt lat="45.684780" lon="4.747540">
						<ele>214</ele>
						<time>2026-01-27T10:39:02Z</time>
					</trkpt>
					<trkpt lat="45.684820" lon="4.747770">
						<ele>214</ele>
						<time>2026-01-27T10:39:24Z</time>
					</trkpt>
					<trkpt lat="45.684790" lon="4.747780">
						<ele>214</ele>
						<time>2026-01-27T10:39:28Z</time>
					</trkpt>
					<trkpt lat="45.684820" lon="4.747770">
						<ele>214</ele>
						<time>2026-01-27T10:39:32Z</time>
					</trkpt>
					<trkpt lat="45.685000" lon="4.747850">
						<ele>215</ele>
						<time>2026-01-27T10:39:57Z</time>
					</trkpt>
					<trkpt lat="45.685490" lon="4.748020">
						<ele>217</ele>
						<time>2026-01-27T10:41:05Z</time>
					</trkpt>
					<trkpt lat="45.685610" lon="4.748030">
						<ele>217</ele>
						<time>2026-01-27T10:41:21Z</time>
					</trkpt>
					<trkpt lat="45.686140" lon="4.747940">
						<ele>221</ele>
						<time>2026-01-27T10:42:32Z</time>
					</trkpt>
					<trkpt lat="45.686250" lon="4.747900">
						<ele>222</ele>
						<time>2026-01-27T10:42:47Z</time>
					</trkpt>
					<trkpt lat="45.686290" lon="4.747890">
						<ele>222</ele>
						<time>2026-01-27T10:42:52Z</time>
					</trkpt>
					<trkpt lat="45.686400" lon="4.747810">
						<ele>223</ele>
						<time>2026-01-27T10:43:09Z</time>
					</trkpt>
					<trkpt lat="45.686530" lon="4.747690">
						<ele>223</ele>
						<time>2026-01-27T10:43:29Z</time>
					</trkpt>
					<trkpt lat="45.686660" lon="4.747530">
						<ele>222</ele>
						<time>2026-01-27T10:43:52Z</time>
					</trkpt>
					<trkpt lat="45.687020" lon="4.746880">
						<ele>222</ele>
						<time>2026-01-27T10:45:10Z</time>
					</trkpt>
					<trkpt lat="45.687090" lon="4.746770">
						<ele>221</ele>
						<time>2026-01-27T10:45:24Z</time>
					</trkpt>
					<trkpt lat="45.687250" lon="4.746640">
						<ele>222</ele>
						<time>2026-01-27T10:45:48Z</time>
					</trkpt>
					<trkpt lat="45.687390" lon="4.746570">
						<ele>223</ele>
						<time>2026-01-27T10:46:08Z</time>
					</trkpt>
					<trkpt lat="45.687610" lon="4.746500">
						<ele>225</ele>
						<time>2026-01-27T10:46:38Z</time>
					</trkpt>
					<trkpt lat="45.687660" lon="4.746480">
						<ele>226</ele>
						<time>2026-01-27T10:46:45Z</time>
					</trkpt>
					<trkpt lat="45.687690" lon="4.746460">
						<ele>227</ele>
						<time>2026-01-27T10:46:49Z</time>
					</trkpt>
					<trkpt lat="45.687760" lon="4.746500">
						<ele>229</ele>
						<time>2026-01-27T10:46:59Z</time>
					</trkpt>
					<trkpt lat="45.687960" lon="4.746560">
						<ele>234</ele>
						<time>2026-01-27T10:47:27Z</time>
					</trkpt>
					<trkpt lat="45.688090" lon="4.746570">
						<ele>236</ele>
						<time>2026-01-27T10:47:44Z</time>
					</trkpt>
					<trkpt lat="45.688260" lon="4.746560">
						<ele>240</ele>
						<time>2026-01-27T10:48:07Z</time>
					</trkpt>
					<trkpt lat="45.688610" lon="4.746480">
						<ele>247</ele>
						<time>2026-01-27T10:48:54Z</time>
					</trkpt>
					<trkpt lat="45.688780" lon="4.746490">
						<ele>251</ele>
						<time>2026-01-27T10:49:17Z</time>
					</trkpt>
					<trkpt lat="45.688920" lon="4.746540">
						<ele>255</ele>
						<time>2026-01-27T10:49:36Z</time>
					</trkpt>
					<trkpt lat="45.689030" lon="4.746610">
						<ele>258</ele>
						<time>2026-01-27T10:49:52Z</time>
					</trkpt>
					<trkpt lat="45.689090" lon="4.746640">
						<ele>260</ele>
						<time>2026-01-27T10:50:01Z</time>
					</trkpt>
					<trkpt lat="45.689750" lon="4.746920">
						<ele>273</ele>
						<time>2026-01-27T10:51:32Z</time>
					</trkpt>
					<trkpt lat="45.689950" lon="4.747030">
						<ele>276</ele>
						<time>2026-01-27T10:52:01Z</time>
					</trkpt>
					<trkpt lat="45.690460" lon="4.747150">
						<ele>280</ele>
						<time>2026-01-27T10:53:10Z</time>
					</trkpt>
					<trkpt lat="45.690580" lon="4.747130">
						<ele>281</ele>
						<time>2026-01-27T10:53:26Z</time>
					</trkpt>
					<trkpt lat="45.690830" lon="4.746610">
						<ele>281</ele>
						<time>2026-01-27T10:54:25Z</time>
					</trkpt>
					<trkpt lat="45.690870" lon="4.746600">
						<ele>281</ele>
						<time>2026-01-27T10:54:30Z</time>
					</trkpt>
					<trkpt lat="45.691010" lon="4.746600">
						<ele>282</ele>
						<time>2026-01-27T10:54:49Z</time>
					</trkpt>
					<trkpt lat="45.691260" lon="4.746550">
						<ele>284</ele>
						<time>2026-01-27T10:55:23Z</time>
					</trkpt>
					<trkpt lat="45.691730" lon="4.746500">
						<ele>287</ele>
						<time>2026-01-27T10:56:26Z</time>
					</trkpt>
					<trkpt lat="45.691940" lon="4.746500">
						<ele>288</ele>
						<time>2026-01-27T10:56:54Z</time>
					</trkpt>
					<trkpt lat="45.692040" lon="4.746500">
						<ele>289</ele>
						<time>2026-01-27T10:57:07Z</time>
					</trkpt>
					<trkpt lat="45.692660" lon="4.746660">
						<ele>291</ele>
						<time>2026-01-27T10:58:31Z</time>
					</trkpt>
					<trkpt lat="45.692860" lon="4.746700">
						<ele>291</ele>
						<time>2026-01-27T10:58:58Z</time>
					</trkpt>
					<trkpt lat="45.693260" lon="4.746720">
						<ele>292</ele>
						<time>2026-01-27T10:59:51Z</time>
					</trkpt>
					<trkpt lat="45.693420" lon="4.746760">
						<ele>292</ele>
						<time>2026-01-27T11:00:13Z</time>
					</trkpt>
					<trkpt lat="45.693830" lon="4.746820">
						<ele>292</ele>
						<time>2026-01-27T11:01:08Z</time>
					</trkpt>
					<trkpt lat="45.693900" lon="4.746820">
						<ele>292</ele>
						<time>2026-01-27T11:01:17Z</time>
					</trkpt>
					<trkpt lat="45.693980" lon="4.746810">
						<ele>292</ele>
						<time>2026-01-27T11:01:28Z</time>
					</trkpt>
					<trkpt lat="45.694520" lon="4.746670">
						<ele>293</ele>
						<time>2026-01-27T11:02:41Z</time>
					</trkpt>
					<trkpt lat="45.695170" lon="4.746540">
						<ele>294</ele>
						<time>2026-01-27T11:04:09Z</time>
					</trkpt>
					<trkpt lat="45.695980" lon="4.746240">
						<ele>296</ele>
						<time>2026-01-27T11:06:01Z</time>
					</trkpt>
					<trkpt lat="45.696360" lon="4.746070">
						<ele>298</ele>
						<time>2026-01-27T11:06:54Z</time>
					</trkpt>
					<trkpt lat="45.696360" lon="4.746100">
						<ele>298</ele>
						<time>2026-01-27T11:06:57Z</time>
					</trkpt>
					<trkpt lat="45.696360" lon="4.746070">
						<ele>298</ele>
						<time>2026-01-27T11:06:59Z</time>
					</trkpt>
					<trkpt lat="45.697010" lon="4.745780">
						<ele>300</ele>
						<time>2026-01-27T11:08:30Z</time>
					</trkpt>
					<trkpt lat="45.697140" lon="4.745760">
						<ele>300</ele>
						<time>2026-01-27T11:08:48Z</time>
					</trkpt>
					<trkpt lat="45.697810" lon="4.745760">
						<ele>302</ele>
						<time>2026-01-27T11:10:17Z</time>
					</trkpt>
					<trkpt lat="45.697990" lon="4.745830">
						<ele>303</ele>
						<time>2026-01-27T11:10:42Z</time>
					</trkpt>
					<trkpt lat="45.698150" lon="4.745970">
						<ele>303</ele>
						<time>2026-01-27T11:11:07Z</time>
					</trkpt>
					<trkpt lat="45.698610" lon="4.746550">
						<ele>305</ele>
						<time>2026-01-27T11:12:29Z</time>
					</trkpt>
					<trkpt lat="45.699020" lon="4.747180">
						<ele>305</ele>
						<time>2026-01-27T11:13:49Z</time>
					</trkpt>
					<trkpt lat="45.699070" lon="4.747280">
						<ele>305</ele>
						<time>2026-01-27T11:14:00Z</time>
					</trkpt>
					<trkpt lat="45.699050" lon="4.747350">
						<ele>305</ele>
						<time>2026-01-27T11:14:07Z</time>
					</trkpt>
					<trkpt lat="45.698990" lon="4.747620">
						<ele>304</ele>
						<time>2026-01-27T11:14:34Z</time>
					</trkpt>
					<trkpt lat="45.699000" lon="4.749500">
						<ele>294</ele>
						<time>2026-01-27T11:17:29Z</time>
					</trkpt>
					<trkpt lat="45.699000" lon="4.749610">
						<ele>294</ele>
						<time>2026-01-27T11:17:39Z</time>
					</trkpt>
					<trkpt lat="45.698790" lon="4.751000">
						<ele>286</ele>
						<time>2026-01-27T11:19:52Z</time>
					</trkpt>
					<trkpt lat="45.698590" lon="4.752400">
						<ele>283</ele>
						<time>2026-01-27T11:22:05Z</time>
					</trkpt>
					<trkpt lat="45.698510" lon="4.752880">
						<ele>281</ele>
						<time>2026-01-27T11:22:51Z</time>
					</trkpt>
					<trkpt lat="45.698480" lon="4.753280">
						<ele>279</ele>
						<time>2026-01-27T11:23:29Z</time>
					</trkpt>
					<trkpt lat="45.698480" lon="4.753900">
						<ele>278</ele>
						<time>2026-01-27T11:24:26Z</time>
					</trkpt>
					<trkpt lat="45.698460" lon="4.754250">
						<ele>278</ele>
						<time>2026-01-27T11:24:59Z</time>
					</trkpt>
					<trkpt lat="45.698460" lon="4.754320">
						<ele>277</ele>
						<time>2026-01-27T11:25:06Z</time>
					</trkpt>
					<trkpt lat="45.699990" lon="4.754280">
						<ele>274</ele>
						<time>2026-01-27T11:28:30Z</time>
					</trkpt>
					<trkpt lat="45.700400" lon="4.754260">
						<ele>273</ele>
						<time>2026-01-27T11:29:25Z</time>
					</trkpt>
					<trkpt lat="45.700390" lon="4.754610">
						<ele>273</ele>
						<time>2026-01-27T11:29:57Z</time>
					</trkpt>
					<trkpt lat="45.700430" lon="4.754620">
						<ele>273</ele>
						<time>2026-01-27T11:30:03Z</time>
					</trkpt>
					<trkpt lat="45.700480" lon="4.754620">
						<ele>273</ele>
						<time>2026-01-27T11:30:09Z</time>
					</trkpt>
					<trkpt lat="45.700510" lon="4.754640">
						<ele>272</ele>
						<time>2026-01-27T11:30:14Z</time>
					</trkpt>
					<trkpt lat="45.700550" lon="4.754660">
						<ele>272</ele>
						<time>2026-01-27T11:30:19Z</time>
					</trkpt>
					<trkpt lat="45.700590" lon="4.754580">
						<ele>272</ele>
						<time>2026-01-27T11:30:29Z</time>
					</trkpt>
					<trkpt lat="45.700660" lon="4.754480">
						<ele>273</ele>
						<time>2026-01-27T11:30:42Z</time>
					</trkpt>
					<trkpt lat="45.700740" lon="4.754370">
						<ele>273</ele>
						<time>2026-01-27T11:30:57Z</time>
					</trkpt>
					<trkpt lat="45.700830" lon="4.754280">
						<ele>273</ele>
						<time>2026-01-27T11:31:11Z</time>
					</trkpt>
					<trkpt lat="45.700980" lon="4.754180">
						<ele>273</ele>
						<time>2026-01-27T11:31:33Z</time>
					</trkpt>
					<trkpt lat="45.701060" lon="4.754140">
						<ele>273</ele>
						<time>2026-01-27T11:31:45Z</time>
					</trkpt>
					<trkpt lat="45.701260" lon="4.754110">
						<ele>273</ele>
						<time>2026-01-27T11:32:11Z</time>
					</trkpt>
					<trkpt lat="45.701870" lon="4.754000">
						<ele>272</ele>
						<time>2026-01-27T11:33:33Z</time>
					</trkpt>
					<trkpt lat="45.702080" lon="4.753950">
						<ele>272</ele>
						<time>2026-01-27T11:34:02Z</time>
					</trkpt>
					<trkpt lat="45.702350" lon="4.753860">
						<ele>272</ele>
						<time>2026-01-27T11:34:39Z</time>
					</trkpt>
					<trkpt lat="45.702610" lon="4.753750">
						<ele>271</ele>
						<time>2026-01-27T11:35:15Z</time>
					</trkpt>
					<trkpt lat="45.703870" lon="4.753070">
						<ele>270</ele>
						<time>2026-01-27T11:38:15Z</time>
					</trkpt>
					<trkpt lat="45.704260" lon="4.752820">
						<ele>271</ele>
						<time>2026-01-27T11:39:12Z</time>
					</trkpt>
					<trkpt lat="45.704610" lon="4.752560">
						<ele>272</ele>
						<time>2026-01-27T11:40:04Z</time>
					</trkpt>
					<trkpt lat="45.704650" lon="4.752530">
						<ele>273</ele>
						<time>2026-01-27T11:40:10Z</time>
					</trkpt>
					<trkpt lat="45.704610" lon="4.752560">
						<ele>272</ele>
						<time>2026-01-27T11:40:16Z</time>
					</trkpt>
					<trkpt lat="45.704620" lon="4.752590">
						<ele>272</ele>
						<time>2026-01-27T11:40:20Z</time>
					</trkpt>
					<trkpt lat="45.704620" lon="4.753090">
						<ele>272</ele>
						<time>2026-01-27T11:41:06Z</time>
					</trkpt>
					<trkpt lat="45.704620" lon="4.753210">
						<ele>272</ele>
						<time>2026-01-27T11:41:17Z</time>
					</trkpt>
					<trkpt lat="45.704630" lon="4.753290">
						<ele>272</ele>
						<time>2026-01-27T11:41:25Z</time>
					</trkpt>
					<trkpt lat="45.704650" lon="4.753360">
						<ele>272</ele>
						<time>2026-01-27T11:41:32Z</time>
					</trkpt>
					<trkpt lat="45.704680" lon="4.753410">
						<ele>273</ele>
						<time>2026-01-27T11:41:38Z</time>
					</trkpt>
					<trkpt lat="45.704700" lon="4.753470">
						<ele>273</ele>
						<time>2026-01-27T11:41:44Z</time>
					</trkpt>
					<trkpt lat="45.704740" lon="4.753440">
						<ele>274</ele>
						<time>2026-01-27T11:41:50Z</time>
					</trkpt>
					<trkpt lat="45.704800" lon="4.753380">
						<ele>274</ele>
						<time>2026-01-27T11:42:00Z</time>
					</trkpt>
					<trkpt lat="45.704860" lon="4.753290">
						<ele>274</ele>
						<time>2026-01-27T11:42:12Z</time>
					</trkpt>
					<trkpt lat="45.704940" lon="4.753160">
						<ele>274</ele>
						<time>2026-01-27T11:42:28Z</time>
					</trkpt>
					<trkpt lat="45.705000" lon="4.753040">
						<ele>274</ele>
						<time>2026-01-27T11:42:42Z</time>
					</trkpt>
					<trkpt lat="45.705060" lon="4.752890">
						<ele>275</ele>
						<time>2026-01-27T11:42:58Z</time>
					</trkpt>
					<trkpt lat="45.705270" lon="4.752540">
						<ele>277</ele>
						<time>2026-01-27T11:43:41Z</time>
					</trkpt>
					<trkpt lat="45.705820" lon="4.751770">
						<ele>279</ele>
						<time>2026-01-27T11:45:23Z</time>
					</trkpt>
					<trkpt lat="45.705910" lon="4.751660">
						<ele>279</ele>
						<time>2026-01-27T11:45:39Z</time>
					</trkpt>
					<trkpt lat="45.706000" lon="4.751580">
						<ele>280</ele>
						<time>2026-01-27T11:45:53Z</time>
					</trkpt>
					<trkpt lat="45.706120" lon="4.751500">
						<ele>281</ele>
						<time>2026-01-27T11:46:11Z</time>
					</trkpt>
					<trkpt lat="45.706320" lon="4.751410">
						<ele>283</ele>
						<time>2026-01-27T11:46:39Z</time>
					</trkpt>
					<trkpt lat="45.706470" lon="4.751380">
						<ele>284</ele>
						<time>2026-01-27T11:46:59Z</time>
					</trkpt>
					<trkpt lat="45.706650" lon="4.751420">
						<ele>286</ele>
						<time>2026-01-27T11:47:23Z</time>
					</trkpt>
					<trkpt lat="45.706730" lon="4.751410">
						<ele>286</ele>
						<time>2026-01-27T11:47:34Z</time>
					</trkpt>
					<trkpt lat="45.707480" lon="4.751230">
						<ele>288</ele>
						<time>2026-01-27T11:49:16Z</time>
					</trkpt>
					<trkpt lat="45.707520" lon="4.751160">
						<ele>288</ele>
						<time>2026-01-27T11:49:24Z</time>
					</trkpt>
					<trkpt lat="45.707530" lon="4.751090">
						<ele>288</ele>
						<time>2026-01-27T11:49:31Z</time>
					</trkpt>
					<trkpt lat="45.707480" lon="4.750330">
						<ele>286</ele>
						<time>2026-01-27T11:50:42Z</time>
					</trkpt>
					<trkpt lat="45.707490" lon="4.750160">
						<ele>286</ele>
						<time>2026-01-27T11:50:58Z</time>
					</trkpt>
					<trkpt lat="45.707500" lon="4.750130">
						<ele>286</ele>
						<time>2026-01-27T11:51:01Z</time>
					</trkpt>
					<trkpt lat="45.707550" lon="4.750030">
						<ele>287</ele>
						<time>2026-01-27T11:51:12Z</time>
					</trkpt>
					<trkpt lat="45.707690" lon="4.749850">
						<ele>289</ele>
						<time>2026-01-27T11:51:37Z</time>
					</trkpt>
					<trkpt lat="45.707740" lon="4.749730">
						<ele>290</ele>
						<time>2026-01-27T11:51:50Z</time>
					</trkpt>
					<trkpt lat="45.707780" lon="4.749620">
						<ele>291</ele>
						<time>2026-01-27T11:52:02Z</time>
					</trkpt>
					<trkpt lat="45.707870" lon="4.749490">
						<ele>291</ele>
						<time>2026-01-27T11:52:19Z</time>
					</trkpt>
					<trkpt lat="45.707950" lon="4.749420">
						<ele>292</ele>
						<time>2026-01-27T11:52:32Z</time>
					</trkpt>
					<trkpt lat="45.708090" lon="4.749330">
						<ele>292</ele>
						<time>2026-01-27T11:52:52Z</time>
					</trkpt>
					<trkpt lat="45.708730" lon="4.749000">
						<ele>295</ele>
						<time>2026-01-27T11:54:23Z</time>
					</trkpt>
					<trkpt lat="45.709360" lon="4.748830">
						<ele>298</ele>
						<time>2026-01-27T11:55:48Z</time>
					</trkpt>
					<trkpt lat="45.709630" lon="4.748700">
						<ele>298</ele>
						<time>2026-01-27T11:56:26Z</time>
					</trkpt>
					<trkpt lat="45.709720" lon="4.748650">
						<ele>299</ele>
						<time>2026-01-27T11:56:39Z</time>
					</trkpt>
					<trkpt lat="45.709930" lon="4.748590">
						<ele>299</ele>
						<time>2026-01-27T11:57:08Z</time>
					</trkpt>
					<trkpt lat="45.709980" lon="4.748580">
						<ele>299</ele>
						<time>2026-01-27T11:57:15Z</time>
					</trkpt>
					<trkpt lat="45.710150" lon="4.748470">
						<ele>299</ele>
						<time>2026-01-27T11:57:39Z</time>
					</trkpt>
					<trkpt lat="45.710780" lon="4.748620">
						<ele>302</ele>
						<time>2026-01-27T11:59:05Z</time>
					</trkpt>
					<trkpt lat="45.710970" lon="4.748360">
						<ele>302</ele>
						<time>2026-01-27T11:59:40Z</time>
					</trkpt>
					<trkpt lat="45.710980" lon="4.748270">
						<ele>302</ele>
						<time>2026-01-27T11:59:48Z</time>
					</trkpt>
					<trkpt lat="45.711020" lon="4.747790">
						<ele>305</ele>
						<time>2026-01-27T12:00:33Z</time>
					</trkpt>
					<trkpt lat="45.711000" lon="4.747590">
						<ele>305</ele>
						<time>2026-01-27T12:00:52Z</time>
					</trkpt>
					<trkpt lat="45.710790" lon="4.747040">
						<ele>306</ele>
						<time>2026-01-27T12:01:51Z</time>
					</trkpt>
					<trkpt lat="45.710740" lon="4.746800">
						<ele>307</ele>
						<time>2026-01-27T12:02:14Z</time>
					</trkpt>
					<trkpt lat="45.710670" lon="4.746560">
						<ele>307</ele>
						<time>2026-01-27T12:02:38Z</time>
					</trkpt>
					<trkpt lat="45.710620" lon="4.746320">
						<ele>307</ele>
						<time>2026-01-27T12:03:01Z</time>
					</trkpt>
					<trkpt lat="45.710610" lon="4.746270">
						<ele>307</ele>
						<time>2026-01-27T12:03:06Z</time>
					</trkpt>
					<trkpt lat="45.710530" lon="4.746070">
						<ele>306</ele>
						<time>2026-01-27T12:03:28Z</time>
					</trkpt>
					<trkpt lat="45.710520" lon="4.745980">
						<ele>306</ele>
						<time>2026-01-27T12:03:36Z</time>
					</trkpt>
					<trkpt lat="45.710420" lon="4.745730">
						<ele>306</ele>
						<time>2026-01-27T12:04:03Z</time>
					</trkpt>
					<trkpt lat="45.710470" lon="4.745620">
						<ele>306</ele>
						<time>2026-01-27T12:04:15Z</time>
					</trkpt>
					<trkpt lat="45.710470" lon="4.745420">
						<ele>306</ele>
						<time>2026-01-27T12:04:34Z</time>
					</trkpt>
					<trkpt lat="45.710260" lon="4.744890">
						<ele>306</ele>
						<time>2026-01-27T12:05:31Z</time>
					</trkpt>
					<trkpt lat="45.710270" lon="4.744820">
						<ele>306</ele>
						<time>2026-01-27T12:05:37Z</time>
					</trkpt>
					<trkpt lat="45.710300" lon="4.744760">
						<ele>306</ele>
						<time>2026-01-27T12:05:44Z</time>
					</trkpt>
					<trkpt lat="45.710080" lon="4.744630">
						<ele>305</ele>
						<time>2026-01-27T12:06:16Z</time>
					</trkpt>
					<trkpt lat="45.710100" lon="4.744510">
						<ele>306</ele>
						<time>2026-01-27T12:06:28Z</time>
					</trkpt>
					<trkpt lat="45.710110" lon="4.744400">
						<ele>306</ele>
						<time>2026-01-27T12:06:38Z</time>
					</trkpt>
					</trkseg>
				</trk>
			</gpx>